Time;durP1;ratioP1;P1;durP2;ratioP2;P2;SDS_P1;SDS_P2;PMS_P1;PMS_P2;Temp;Humidity;BMP_temperature;BMP_pressure;BME280_temperature;BME280_humidity;BME280_pressure;Samples;Min_cycle;Max_cycle;Signal;HPM_P1;HPM_P2
2022/06/11 00:00:17;;;;;;;6.37;2.50;;;15.20;99.90;;;;;;4991296;28;21171;-77
2022/06/11 00:02:42;;;;;;;3.30;2.47;;;15.10;99.90;;;;;;4990980;28;20563;-77
2022/06/11 00:05:08;;;;;;;3.57;2.40;;;15.00;99.90;;;;;;4990438;28;20413;-74
2022/06/11 00:07:34;;;;;;;3.90;2.57;;;15.00;99.90;;;;;;4989124;28;20244;-74
2022/06/11 00:10:00;;;;;;;12.23;2.30;;;14.90;99.90;;;;;;4989118;28;20451;-74
2022/06/11 00:12:26;;;;;;;3.63;2.80;;;14.90;99.90;;;;;;4990495;28;20889;-73
2022/06/11 00:14:54;;;;;;;4.80;3.20;;;14.80;99.90;;;;;;4990378;28;20442;-74
2022/06/11 00:17:21;;;;;;;2.80;2.60;;;14.80;99.90;;;;;;4988947;28;20512;-74
2022/06/11 00:19:47;;;;;;;4.20;2.93;;;14.80;99.90;;;;;;4990350;28;20426;-74
2022/06/11 00:22:15;;;;;;;3.50;2.80;;;14.70;99.90;;;;;;5005016;28;21008;-74
2022/06/11 00:24:41;;;;;;;5.23;3.07;;;14.70;99.90;;;;;;4990159;28;20414;-74
2022/06/11 00:27:09;;;;;;;4.70;2.73;;;14.70;99.90;;;;;;4972553;28;21023;-74
2022/06/11 00:29:36;;;;;;;4.50;3.10;;;14.50;99.90;;;;;;5004965;28;20540;-74
2022/06/11 00:32:03;;;;;;;4.13;3.30;;;14.40;99.90;;;;;;4972581;28;20441;-74
2022/06/11 00:34:29;;;;;;;4.07;3.53;;;14.20;99.90;;;;;;4990087;28;20445;-74
2022/06/11 00:36:55;;;;;;;3.60;2.40;;;14.00;99.90;;;;;;4990042;28;20432;-74
2022/06/11 00:39:24;;;;;;;4.00;2.50;;;14.10;99.90;;;;;;4990006;28;21266;-74
2022/06/11 00:41:55;;;;;;;3.20;2.77;;;14.10;99.90;;;;;;4989794;28;20417;-74
2022/06/11 00:44:21;;;;;;;2.80;2.33;;;14.00;99.90;;;;;;4989734;28;20518;-74
2022/06/11 00:47:01;;;;;;;3.57;2.70;;;13.90;99.90;;;;;;4989731;28;20465;-74
2022/06/11 00:49:53;;;;;;;6.60;2.83;;;13.80;99.90;;;;;;4989672;28;20197;-74
2022/06/11 00:52:37;;;;;;;4.77;2.80;;;13.80;99.90;;;;;;4989817;28;20455;-74
2022/06/11 00:55:17;;;;;;;8.30;3.13;;;13.70;99.90;;;;;;4989705;28;20757;-73
2022/06/11 00:58:07;;;;;;;5.80;2.87;;;13.80;99.90;;;;;;5004674;28;21050;-73
2022/06/11 01:00:41;;;;;;;5.30;2.60;;;13.90;99.90;;;;;;4989747;28;20953;-74
2022/06/11 01:03:09;;;;;;;5.33;2.70;;;13.90;99.90;;;;;;4989443;28;20522;-73
2022/06/11 01:05:37;;;;;;;3.90;2.50;;;13.90;99.90;;;;;;5004284;28;20452;-73
2022/06/11 01:08:10;;;;;;;2.90;1.80;;;13.90;99.90;;;;;;4987889;28;21152;-73
2022/06/11 01:10:42;;;;;;;3.20;2.00;;;13.90;99.90;;;;;;4989633;28;20789;-75
2022/06/11 01:13:32;;;;;;;8.20;2.27;;;13.90;99.90;;;;;;4989297;28;20478;-74
2022/06/11 01:16:08;;;;;;;2.40;2.30;;;13.70;99.90;;;;;;4989473;28;20423;-74
2022/06/11 01:18:51;;;;;;;3.63;1.90;;;13.60;99.90;;;;;;4989164;28;20412;-75
2022/06/11 01:21:35;;;;;;;7.50;2.30;;;13.40;99.90;;;;;;4989557;28;21268;-78
2022/06/11 01:24:12;;;;;;;2.70;2.50;;;13.50;99.90;;;;;;4989319;28;20579;-77
2022/06/11 01:26:44;;;;;;;3.70;2.30;;;13.40;99.90;;;;;;4988046;28;21247;-74
2022/06/11 01:29:21;;;;;;;8.23;2.40;;;13.40;99.90;;;;;;4989762;28;20416;-75
2022/06/11 01:32:00;;;;;;;3.03;2.40;;;13.50;99.90;;;;;;4989350;28;20419;-76
2022/06/11 01:34:33;;;;;;;3.23;2.00;;;13.50;99.90;;;;;;5004255;28;20436;-74
2022/06/11 01:37:07;;;;;;;5.27;3.10;;;13.50;99.90;;;;;;4989256;28;20491;-75
2022/06/11 01:39:43;;;;;;;2.60;2.37;;;13.50;99.90;;;;;;4989409;28;20516;-75
2022/06/11 01:42:18;;;;;;;3.43;2.17;;;13.60;99.90;;;;;;4989601;28;20966;-72
2022/06/11 01:44:45;;;;;;;2.43;2.20;;;13.60;99.90;;;;;;4988032;28;20466;-73
2022/06/11 01:47:13;;;;;;;4.97;2.40;;;13.50;99.90;;;;;;4990395;28;20483;-72
2022/06/11 01:49:47;;;;;;;3.10;2.17;;;13.60;99.90;;;;;;4991427;28;20531;-73
2022/06/11 01:52:28;;;;;;;3.30;2.30;;;13.50;99.90;;;;;;4989924;28;20439;-73
2022/06/11 01:55:02;;;;;;;3.20;2.03;;;13.50;99.90;;;;;;4990102;28;20518;-73
2022/06/11 01:57:53;;;;;;;3.43;2.30;;;13.40;99.90;;;;;;4989721;28;20425;-72
2022/06/11 02:00:38;;;;;;;4.30;2.30;;;13.40;99.90;;;;;;4989428;28;20421;-72
2022/06/11 02:03:19;;;;;;;2.83;1.97;;;13.40;99.90;;;;;;4988066;28;20935;-72
2022/06/11 02:06:02;;;;;;;2.77;2.17;;;13.40;99.90;;;;;;4987539;28;20420;-72
2022/06/11 02:08:37;;;;;;;2.10;1.90;;;13.40;99.90;;;;;;4988799;28;20420;-72
2022/06/11 02:11:16;;;;;;;3.30;2.47;;;13.40;99.90;;;;;;4988790;28;20931;-72
2022/06/11 02:13:52;;;;;;;6.53;2.27;;;13.50;99.90;;;;;;4988632;28;20496;-72
2022/06/11 02:16:48;;;;;;;4.30;2.23;;;13.40;99.90;;;;;;4989069;28;20976;-71
2022/06/11 02:19:18;;;;;;;2.73;2.13;;;13.40;99.90;;;;;;4985522;28;20920;-72
2022/06/11 02:21:51;;;;;;;2.43;2.27;;;13.40;99.90;;;;;;4988784;28;20459;-72
2022/06/11 02:24:34;;;;;;;4.20;2.17;;;13.50;99.90;;;;;;4988768;28;20467;-72
2022/06/11 02:27:04;;;;;;;4.60;2.00;;;13.50;99.90;;;;;;4988815;28;20413;-73
2022/06/11 02:29:32;;;;;;;4.63;2.37;;;13.50;99.90;;;;;;4991828;28;20423;-74
2022/06/11 02:32:08;;;;;;;3.40;2.70;;;13.50;99.90;;;;;;4992378;28;20491;-75
2022/06/11 02:34:39;;;;;;;3.77;2.83;;;13.40;99.90;;;;;;4992391;28;21076;-73
2022/06/11 02:37:17;;;;;;;2.63;1.90;;;13.40;99.90;;;;;;5007256;28;20445;-73
2022/06/11 02:39:43;;;;;;;2.60;2.40;;;13.40;99.90;;;;;;5007129;28;20416;-74
2022/06/11 02:42:13;;;;;;;2.47;2.27;;;13.30;99.90;;;;;;4990747;28;20440;-72
2022/06/11 02:44:40;;;;;;;3.10;2.53;;;13.40;99.90;;;;;;4992107;28;20499;-72
2022/06/11 02:47:05;;;;;;;2.33;2.13;;;13.40;99.90;;;;;;4992148;28;20840;-72
2022/06/11 02:49:34;;;;;;;3.00;2.73;;;13.40;99.90;;;;;;4991919;28;20413;-73
2022/06/11 02:52:07;;;;;;;3.57;2.10;;;13.30;99.90;;;;;;4992144;28;20201;-73
2022/06/11 02:54:33;;;;;;;3.70;2.30;;;13.30;99.90;;;;;;4992065;28;20449;-73
2022/06/11 02:57:01;;;;;;;3.73;2.40;;;13.30;99.90;;;;;;4990520;28;20421;-72
2022/06/11 02:59:27;;;;;;;2.50;2.30;;;13.20;99.90;;;;;;4992107;28;20413;-72
2022/06/11 03:01:54;;;;;;;4.80;2.57;;;13.20;99.90;;;;;;4991983;28;20468;-72
2022/06/11 03:04:25;;;;;;;2.40;2.20;;;13.10;99.90;;;;;;4992958;28;21019;-73
2022/06/11 03:06:51;;;;;;;4.30;2.30;;;13.00;99.90;;;;;;4992937;28;20588;-73
2022/06/11 03:09:21;;;;;;;2.57;2.30;;;13.00;99.90;;;;;;4992719;28;20423;-73
2022/06/11 03:11:47;;;;;;;3.00;2.40;;;13.00;99.90;;;;;;4992408;28;20425;-73
2022/06/11 03:14:14;;;;;;;4.40;2.00;;;13.10;99.90;;;;;;5007205;28;20819;-73
2022/06/11 03:16:41;;;;;;;4.90;2.73;;;13.20;99.90;;;;;;4992193;28;20428;-73
2022/06/11 03:19:08;;;;;;;2.27;2.13;;;13.30;99.90;;;;;;4992284;28;20435;-73
2022/06/11 03:21:35;;;;;;;6.93;2.60;;;13.30;99.90;;;;;;4992434;28;20415;-73
2022/06/11 03:24:01;;;;;;;3.53;2.40;;;13.20;99.90;;;;;;4991900;28;20492;-73
2022/06/11 03:26:26;;;;;;;4.27;1.90;;;13.20;99.90;;;;;;5006464;28;20946;-73
2022/06/11 03:28:52;;;;;;;3.33;2.27;;;13.20;99.90;;;;;;4991672;28;20616;-73
2022/06/11 03:31:18;;;;;;;2.40;2.10;;;13.20;99.90;;;;;;4991535;28;20182;-73
2022/06/11 03:33:44;;;;;;;5.80;2.87;;;13.20;99.90;;;;;;4991396;28;20451;-73
2022/06/11 03:36:12;;;;;;;2.73;2.47;;;13.20;99.90;;;;;;4991522;28;20523;-76
2022/06/11 03:38:40;;;;;;;3.07;2.77;;;13.20;99.90;;;;;;4991400;28;20192;-76
2022/06/11 03:41:06;;;;;;;2.90;2.40;;;13.30;99.90;;;;;;4990586;28;20421;-76
2022/06/11 03:43:32;;;;;;;4.90;2.50;;;13.20;99.90;;;;;;5005695;28;21024;-72
2022/06/11 03:45:59;;;;;;;5.90;2.80;;;13.20;99.90;;;;;;4989935;28;20415;-75
2022/06/11 03:48:28;;;;;;;2.67;2.30;;;13.10;99.90;;;;;;5006290;28;20460;-74
2022/06/11 03:50:55;;;;;;;4.50;2.70;;;13.10;99.90;;;;;;4989853;28;20540;-74
2022/06/11 03:53:21;;;;;;;2.57;2.00;;;13.10;99.90;;;;;;5005773;28;20974;-74
2022/06/11 03:55:46;;;;;;;4.37;2.90;;;13.10;99.90;;;;;;4989760;28;20420;-74
2022/06/11 03:58:13;;;;;;;2.70;2.50;;;13.20;99.90;;;;;;4991089;28;20276;-74
2022/06/11 04:03:25;;;;;;;2.53;2.37;;;13.20;99.90;;;;;;4990037;28;20483;-75
2022/06/11 04:05:53;;;;;;;2.70;2.50;;;13.30;99.90;;;;;;5006044;28;20418;-75
2022/06/11 04:08:19;;;;;;;3.83;3.10;;;13.30;99.90;;;;;;4991329;28;20475;-74
2022/06/11 04:10:46;;;;;;;5.53;3.03;;;13.30;99.90;;;;;;4991412;28;20421;-74
2022/06/11 04:13:11;;;;;;;2.87;2.60;;;13.30;99.90;;;;;;4990865;28;20470;-73
2022/06/11 04:15:39;;;;;;;5.47;2.87;;;13.40;99.90;;;;;;4992496;28;20887;-75
2022/06/11 04:18:06;;;;;;;3.83;2.53;;;13.40;99.90;;;;;;5005905;28;20181;-74
2022/06/11 04:20:32;;;;;;;12.13;2.43;;;13.50;99.90;;;;;;4991352;28;20838;-83
2022/06/11 04:22:59;;;;;;;3.40;3.10;;;13.60;99.90;;;;;;5008562;28;20488;-77
2022/06/11 04:25:25;;;;;;;3.50;3.07;;;13.60;99.90;;;;;;5006551;28;20877;-78
2022/06/11 04:27:53;;;;;;;2.90;2.60;;;13.70;99.90;;;;;;4991002;28;20417;-77
2022/06/11 04:30:21;;;;;;;3.30;2.47;;;13.70;99.90;;;;;;4990990;28;20421;-76
2022/06/11 04:32:46;;;;;;;3.53;2.50;;;13.70;99.90;;;;;;5006662;28;20449;-78
2022/06/11 04:35:12;;;;;;;3.67;2.73;;;13.70;99.90;;;;;;4990720;28;20479;-77
2022/06/11 04:37:38;;;;;;;7.53;2.73;;;13.80;99.90;;;;;;4992851;28;20193;-79
2022/06/11 04:40:05;;;;;;;4.57;3.03;;;13.90;99.90;;;;;;4993045;28;20929;-77
2022/06/11 04:42:31;;;;;;;5.83;3.00;;;14.00;99.90;;;;;;4992575;28;20213;-77
2022/06/11 04:44:57;;;;;;;3.13;2.80;;;14.00;99.90;;;;;;4991232;28;20467;-77
2022/06/11 04:47:25;;;;;;;2.93;2.70;;;14.10;99.90;;;;;;5007503;28;20421;-77
2022/06/11 04:49:53;;;;;;;2.57;2.37;;;14.10;99.90;;;;;;4992030;28;21062;-77
2022/06/11 04:52:20;;;;;;;2.43;2.30;;;14.20;99.90;;;;;;4991549;28;20475;-77
2022/06/11 04:54:46;;;;;;;4.30;2.70;;;14.40;99.90;;;;;;4991765;28;20421;-77
2022/06/11 04:57:11;;;;;;;3.17;2.60;;;14.50;99.90;;;;;;4990340;28;20496;-77
2022/06/11 04:59:37;;;;;;;2.70;2.50;;;14.50;99.90;;;;;;4990289;28;20190;-77
2022/06/11 05:02:03;;;;;;;3.90;2.70;;;14.60;99.90;;;;;;4990574;28;20215;-76
2022/06/11 05:04:29;;;;;;;5.90;3.00;;;14.60;99.90;;;;;;4989920;28;20217;-75
2022/06/11 05:06:55;;;;;;;5.97;3.03;;;14.70;99.90;;;;;;4990189;28;20413;-77
2022/06/11 05:09:23;;;;;;;4.07;2.60;;;14.80;99.90;;;;;;4990110;28;20499;-76
2022/06/11 05:11:50;;;;;;;5.23;2.80;;;14.80;99.90;;;;;;5005163;28;20217;-78
2022/06/11 05:14:17;;;;;;;7.37;2.70;;;15.00;99.90;;;;;;4990664;28;20488;-78
2022/06/11 05:16:46;;;;;;;7.93;3.37;;;15.10;99.90;;;;;;4988953;28;20491;-78
2022/06/11 05:19:14;;;;;;;2.60;2.40;;;15.10;99.90;;;;;;4990493;28;20432;-77
2022/06/11 05:21:41;;;;;;;4.27;2.57;;;15.30;99.90;;;;;;4990098;28;20443;-78
2022/06/11 05:24:08;;;;;;;5.03;2.57;;;15.50;99.90;;;;;;4988528;28;20473;-75
2022/06/11 05:26:39;;;;;;;2.50;2.30;;;15.60;99.90;;;;;;4990014;28;20417;-78
2022/06/11 05:29:06;;;;;;;4.77;3.20;;;15.60;99.90;;;;;;4989963;28;20910;-77
2022/06/11 05:31:32;;;;;;;3.80;2.80;;;15.70;99.90;;;;;;4989711;28;20425;-78
2022/06/11 05:33:58;;;;;;;4.40;3.07;;;15.70;99.90;;;;;;5004701;28;20436;-75
2022/06/11 05:36:24;;;;;;;4.33;2.97;;;15.80;99.90;;;;;;4988067;28;20801;-77
2022/06/11 05:38:49;;;;;;;2.83;2.63;;;15.90;99.90;;;;;;4987832;28;20190;-78
2022/06/11 05:41:15;;;;;;;2.90;2.70;;;16.10;99.90;;;;;;4989515;28;20189;-76
2022/06/11 05:43:41;;;;;;;4.07;3.10;;;16.20;99.90;;;;;;4987638;28;20287;-79
2022/06/11 05:46:26;;;;;;;7.23;3.67;;;16.30;99.90;;;;;;4987853;28;20423;-76
2022/06/11 05:48:58;;;;;;;3.30;2.47;;;16.60;99.90;;;;;;5004767;28;20194;-79
2022/06/11 05:51:38;;;;;;;3.93;2.33;;;16.80;99.90;;;;;;5005634;28;20428;-80
2022/06/11 05:54:16;;;;;;;5.10;2.30;;;17.00;99.90;;;;;;4988884;28;20526;-80
2022/06/11 05:56:42;;;;;;;4.37;2.80;;;17.10;99.90;;;;;;4990142;28;20432;-79
2022/06/11 05:59:13;;;;;;;3.50;2.53;;;17.20;99.90;;;;;;5004665;28;20446;-79
2022/06/11 06:01:41;;;;;;;4.97;2.40;;;17.30;99.90;;;;;;4988506;28;20510;-79
2022/06/11 06:04:07;;;;;;;11.80;2.40;;;17.30;99.90;;;;;;5007709;28;21301;-79
2022/06/11 06:06:33;;;;;;;4.47;2.43;;;17.40;99.90;;;;;;5008866;28;20466;-79
2022/06/11 06:08:59;;;;;;;3.90;2.40;;;17.50;99.90;;;;;;5008504;28;20426;-79
2022/06/11 06:11:26;;;;;;;5.63;2.53;;;17.60;99.90;;;;;;5008622;28;21096;-79
2022/06/11 06:13:52;;;;;;;5.40;2.67;;;17.70;99.90;;;;;;5008687;28;20750;-79
2022/06/11 06:16:25;;;;;;;3.47;2.20;;;17.80;99.90;;;;;;4992181;28;20435;-79
2022/06/11 06:18:51;;;;;;;3.50;2.37;;;18.00;99.90;;;;;;4993195;28;20912;-80
2022/06/11 06:21:20;;;;;;;4.83;2.60;;;18.30;99.90;;;;;;4991945;28;20435;-80
2022/06/11 06:23:46;;;;;;;3.27;2.57;;;18.30;99.90;;;;;;4991631;28;21019;-80
2022/06/11 06:26:11;;;;;;;2.70;2.50;;;18.40;99.90;;;;;;4991931;28;20429;-80
2022/06/11 06:28:37;;;;;;;2.70;2.07;;;18.40;99.90;;;;;;4993364;28;20189;-80
2022/06/11 06:31:06;;;;;;;11.90;3.23;;;18.50;99.90;;;;;;4991764;28;20198;-78
2022/06/11 06:33:32;;;;;;;4.37;2.53;;;18.60;99.90;;;;;;5007556;28;20228;-78
2022/06/11 06:36:00;;;;;;;3.17;2.47;;;18.70;99.90;;;;;;4991311;28;20544;-78
2022/06/11 06:38:26;;;;;;;4.60;2.27;;;18.80;99.90;;;;;;4991644;28;20438;-78
2022/06/11 06:40:52;;;;;;;2.93;2.47;;;18.90;99.90;;;;;;4992693;28;20472;-79
2022/06/11 06:43:19;;;;;;;3.90;2.73;;;19.00;99.90;;;;;;4975106;28;20485;-78
2022/06/11 06:45:45;;;;;;;4.13;2.73;;;19.10;99.90;;;;;;5008648;28;20456;-79
2022/06/11 06:48:11;;;;;;;3.30;2.50;;;19.30;99.90;;;;;;5008987;28;20433;-78
2022/06/11 06:50:37;;;;;;;3.00;2.30;;;19.40;99.90;;;;;;4992882;28;20433;-79
2022/06/11 06:53:03;;;;;;;3.13;2.67;;;19.40;99.90;;;;;;4992767;28;20453;-79
2022/06/11 06:55:29;;;;;;;5.93;2.27;;;19.40;99.90;;;;;;4994557;28;20950;-78
2022/06/11 06:57:54;;;;;;;3.83;2.70;;;19.50;99.90;;;;;;4992774;28;20431;-79
2022/06/11 07:00:20;;;;;;;3.47;2.10;;;19.60;99.90;;;;;;4992294;28;20440;-79
2022/06/11 07:02:47;;;;;;;5.40;2.30;;;19.60;99.90;;;;;;4994228;28;20211;-79
2022/06/11 07:05:15;;;;;;;5.23;2.60;;;19.80;99.90;;;;;;5008628;28;20451;-79
2022/06/11 07:07:41;;;;;;;4.90;3.00;;;20.00;99.90;;;;;;4991947;28;20435;-78
2022/06/11 07:10:09;;;;;;;4.77;2.13;;;20.10;99.90;;;;;;4992387;28;20433;-80
2022/06/11 07:12:35;;;;;;;2.93;2.10;;;20.30;99.90;;;;;;5008722;28;20856;-78
2022/06/11 07:15:02;;;;;;;4.50;2.00;;;20.40;99.90;;;;;;5007516;28;20430;-79
2022/06/11 07:17:38;;;;;;;4.73;2.47;;;20.40;99.90;;;;;;4993665;28;20412;-79
2022/06/11 07:20:13;;;;;;;3.30;2.00;;;20.50;99.90;;;;;;5008432;28;20460;-78
2022/06/11 07:22:53;;;;;;;2.93;2.20;;;20.70;99.90;;;;;;4992944;28;20911;-78
2022/06/11 07:25:19;;;;;;;3.63;2.83;;;20.80;99.90;;;;;;5008823;28;20436;-80
2022/06/11 07:27:52;;;;;;;2.70;2.50;;;20.70;99.90;;;;;;4992904;28;20443;-78
2022/06/11 07:30:24;;;;;;;4.00;2.30;;;20.80;99.90;;;;;;4994419;28;20446;-79
2022/06/11 07:32:55;;;;;;;2.63;2.20;;;20.90;99.90;;;;;;4992868;28;20487;-79
2022/06/11 07:35:22;;;;;;;2.90;1.93;;;20.90;99.90;;;;;;4976935;28;20491;-79
2022/06/11 07:37:49;;;;;;;2.50;1.57;;;21.00;99.90;;;;;;4992380;28;20421;-79
2022/06/11 07:40:15;;;;;;;4.40;2.30;;;21.10;99.90;;;;;;4993685;28;20417;-78
2022/06/11 07:42:41;;;;;;;5.67;1.83;;;21.20;99.90;;;;;;5008631;28;20477;-79
2022/06/11 07:45:07;;;;;;;3.67;2.30;;;21.30;99.90;;;;;;4993800;28;20933;-79
2022/06/11 07:50:17;;;;;;;4.97;2.00;;;21.60;99.90;;;;;;4992615;28;20420;-79
2022/06/11 07:52:43;;;;;;;3.87;2.60;;;21.70;99.90;;;;;;4992411;28;20519;-78
2022/06/11 07:55:10;;;;;;;9.00;2.70;;;21.80;99.90;;;;;;4992277;28;20428;-79
2022/06/11 07:57:38;;;;;;;4.03;2.03;;;21.90;99.90;;;;;;4993936;28;20535;-79
2022/06/11 08:00:07;;;;;;;2.67;2.47;;;22.10;99.90;;;;;;4992882;28;21017;-79
2022/06/11 08:02:33;;;;;;;4.33;2.27;;;22.10;99.90;;;;;;4992925;28;20489;-79
2022/06/11 08:04:59;;;;;;;2.23;2.10;;;22.10;99.90;;;;;;4992629;28;20424;-79
2022/06/11 08:07:27;;;;;;;5.07;2.27;;;22.10;99.90;;;;;;4976619;28;20434;-79
2022/06/11 08:09:53;;;;;;;2.40;2.20;;;22.10;99.90;;;;;;5009252;28;21072;-79
2022/06/11 08:12:19;;;;;;;3.03;2.17;;;22.20;99.90;;;;;;5009543;28;20444;-79
2022/06/11 08:14:45;;;;;;;5.90;2.90;;;22.30;99.90;;;;;;5009281;28;20536;-79
2022/06/11 08:17:10;;;;;;;2.50;2.00;;;22.40;99.90;;;;;;4993513;28;20685;-79
2022/06/11 08:19:36;;;;;;;2.60;2.40;;;22.50;99.90;;;;;;5009355;28;20690;-79
2022/06/11 08:22:02;;;;;;;3.67;2.90;;;22.60;99.90;;;;;;4994279;28;20206;-79
2022/06/11 08:24:28;;;;;;;3.07;2.77;;;22.70;99.90;;;;;;4995870;28;21122;-79
2022/06/11 08:26:53;;;;;;;6.13;4.00;;;22.80;99.90;;;;;;4996449;28;20182;-79
2022/06/11 08:29:19;;;;;;;3.87;3.10;;;22.90;99.90;;;;;;4996257;28;20194;-79
2022/06/11 08:31:45;;;;;;;3.33;2.73;;;23.10;99.90;;;;;;4999942;28;20194;-78
2022/06/11 08:34:10;;;;;;;6.03;2.97;;;23.00;99.90;;;;;;5000291;28;20690;-79
2022/06/11 08:36:36;;;;;;;5.33;2.93;;;23.10;99.90;;;;;;4996831;28;20202;-79
2022/06/11 08:39:02;;;;;;;3.37;2.70;;;23.20;99.20;;;;;;4997123;28;20206;-79
2022/06/11 08:41:35;;;;;;;5.27;3.00;;;23.40;99.90;;;;;;4996590;28;20195;-79
2022/06/11 08:44:08;;;;;;;5.07;3.73;;;23.50;99.90;;;;;;4996004;28;21105;-79
2022/06/11 08:46:39;;;;;;;4.80;3.10;;;23.60;98.70;;;;;;4997076;28;20485;-79
2022/06/11 08:49:05;;;;;;;4.07;1.77;;;23.80;96.90;;;;;;4995509;28;20526;-79
2022/06/11 08:51:40;;;;;;;4.50;2.40;;;24.00;95.80;;;;;;4996838;28;20422;-79
2022/06/11 08:54:23;;;;;;;2.23;1.70;;;24.20;95.50;;;;;;4993605;28;20436;-79
2022/06/11 08:57:03;;;;;;;3.33;1.60;;;24.40;93.60;;;;;;4993775;28;20425;-78
2022/06/11 09:00:13;;;;;;;3.80;1.60;;;24.50;94.20;;;;;;4990271;28;20542;-79
2022/06/11 09:03:04;;;;;;;3.50;1.93;;;24.70;92.80;;;;;;4975552;28;20546;-78
2022/06/11 09:06:00;;;;;;;3.70;1.90;;;24.80;92.30;;;;;;4990056;28;20408;-78
2022/06/11 09:08:42;;;;;;;3.47;1.80;;;25.00;92.50;;;;;;5003614;28;20522;-79
2022/06/11 09:11:16;;;;;;;1.60;1.40;;;25.20;91.60;;;;;;4987547;28;20822;-78
2022/06/11 09:13:56;;;;;;;3.50;1.90;;;25.30;92.30;;;;;;4988748;28;20472;-78
2022/06/11 09:16:46;;;;;;;2.40;1.80;;;25.50;91.30;;;;;;4987359;28;20427;-78
2022/06/11 09:19:59;;;;;;;3.90;2.17;;;25.80;90.30;;;;;;4988482;28;20428;-78
2022/06/11 09:22:41;;;;;;;4.20;1.63;;;26.00;90.50;;;;;;4937829;28;20545;-79
2022/06/11 09:25:35;;;;;;;4.20;1.30;;;26.10;89.30;;;;;;4992261;28;20417;-79
2022/06/11 09:28:20;;;;;;;2.60;1.20;;;26.40;86.10;;;;;;4990313;28;20426;-79
2022/06/11 09:30:55;;;;;;;2.97;1.63;;;26.40;84.80;;;;;;4989959;28;20479;-79
2022/06/11 09:33:40;;;;;;;3.83;1.57;;;26.60;84.00;;;;;;4989063;28;20471;-77
2022/06/11 09:36:19;;;;;;;2.90;1.20;;;26.90;82.00;;;;;;4989251;28;20459;-78
2022/06/11 09:39:03;;;;;;;1.57;1.30;;;26.90;82.00;;;;;;4988819;28;20917;-78
2022/06/11 09:41:46;;;;;;;1.60;1.10;;;26.80;79.60;;;;;;4989244;28;20431;-78
2022/06/11 09:44:37;;;;;;;1.53;0.83;;;26.80;79.40;;;;;;4989244;28;20468;-78
2022/06/11 09:47:24;;;;;;;2.70;1.30;;;27.00;78.90;;;;;;4987502;28;20448;-78
2022/06/11 09:50:15;;;;;;;1.93;1.63;;;27.00;77.20;;;;;;4989450;28;20439;-77
2022/06/11 09:52:47;;;;;;;1.43;1.00;;;27.00;73.10;;;;;;4989401;28;20465;-78
2022/06/11 09:55:22;;;;;;;2.40;1.20;;;27.00;76.00;;;;;;4989000;28;20413;-78
2022/06/11 09:58:12;;;;;;;1.77;1.00;;;27.20;75.30;;;;;;4988100;28;20416;-78
2022/06/11 10:00:43;;;;;;;2.30;1.10;;;27.20;73.70;;;;;;4987460;28;20425;-78
2022/06/11 10:03:35;;;;;;;1.53;1.10;;;27.30;71.00;;;;;;4988638;28;20472;-78
2022/06/11 10:06:11;;;;;;;2.00;0.90;;;27.60;73.70;;;;;;4987396;28;20420;-78
2022/06/11 10:08:51;;;;;;;1.30;0.90;;;28.00;71.70;;;;;;5003409;28;20453;-78
2022/06/11 10:11:56;;;;;;;3.63;1.27;;;28.30;68.60;;;;;;4987562;28;20433;-78
2022/06/11 10:14:34;;;;;;;2.80;1.07;;;28.20;67.00;;;;;;4988810;28;20436;-78
2022/06/11 10:17:34;;;;;;;3.97;1.27;;;28.30;67.80;;;;;;4988806;28;20924;-78
2022/06/11 10:20:40;;;;;;;5.13;1.03;;;28.20;69.80;;;;;;4988758;28;20771;-77
2022/06/11 10:23:27;;;;;;;1.83;1.23;;;28.20;70.40;;;;;;4983941;28;20465;-77
2022/06/11 10:26:16;;;;;;;1.20;1.10;;;28.20;70.70;;;;;;4990716;28;20408;-78
2022/06/11 10:28:49;;;;;;;4.93;1.20;;;28.00;71.00;;;;;;4991062;28;20574;-78
2022/06/11 10:31:23;;;;;;;1.77;1.20;;;28.00;69.90;;;;;;4991034;28;20403;-78
2022/06/11 10:34:13;;;;;;;1.70;1.30;;;28.00;69.30;;;;;;4989474;28;20460;-77
2022/06/11 10:37:07;;;;;;;2.60;1.27;;;28.00;70.40;;;;;;4991179;28;20416;-77
2022/06/11 10:40:03;;;;;;;4.00;1.87;;;28.00;70.30;;;;;;4991236;28;20413;-78
2022/06/11 10:42:46;;;;;;;2.10;1.30;;;27.90;70.70;;;;;;4959385;28;20449;-78
2022/06/11 10:45:14;;;;;;;1.77;1.10;;;27.90;71.50;;;;;;4989802;28;20427;-78
2022/06/11 10:47:47;;;;;;;4.60;1.57;;;27.80;67.20;;;;;;5006249;28;20927;-78
2022/06/11 10:50:13;;;;;;;4.23;1.37;;;27.80;71.80;;;;;;5008537;28;20480;-78
2022/06/11 10:52:45;;;;;;;4.17;1.27;;;27.80;69.60;;;;;;4993783;28;20941;-78
2022/06/11 10:55:21;;;;;;;3.20;1.00;;;27.90;69.40;;;;;;5009066;28;20209;-78
2022/06/11 10:57:50;;;;;;;2.27;1.23;;;28.00;67.60;;;;;;5009361;28;20496;-79
2022/06/11 11:00:21;;;;;;;2.30;1.33;;;28.10;66.70;;;;;;4994404;28;20440;-78
2022/06/11 11:02:58;;;;;;;3.50;1.30;;;28.20;73.90;;;;;;4993541;28;20520;-78
2022/06/11 11:05:24;;;;;;;2.07;1.50;;;28.10;67.90;;;;;;4992663;28;20953;-79
2022/06/11 11:08:01;;;;;;;1.27;1.07;;;28.40;72.10;;;;;;4993187;28;20430;-79
2022/06/11 11:10:41;;;;;;;2.90;1.20;;;28.80;67.40;;;;;;4994084;28;20416;-79
2022/06/11 11:13:14;;;;;;;1.73;1.13;;;29.20;68.30;;;;;;4993592;28;20460;-78
2022/06/11 11:15:44;;;;;;;1.70;1.47;;;29.60;67.00;;;;;;4994452;28;20532;-78
2022/06/11 11:18:16;;;;;;;4.00;1.60;;;29.80;67.90;;;;;;5008989;28;20962;-79
2022/06/11 11:20:44;;;;;;;5.47;2.33;;;29.80;61.90;;;;;;4994182;28;20417;-79
2022/06/11 11:23:10;;;;;;;2.33;1.33;;;29.90;63.60;;;;;;4992833;28;20555;-78
2022/06/11 11:25:57;;;;;;;4.07;1.53;;;29.60;61.30;;;;;;4993993;28;20504;-79
2022/06/11 11:28:38;;;;;;;3.03;1.47;;;30.00;64.60;;;;;;4992781;28;20185;-79
2022/06/11 11:31:07;;;;;;;3.13;1.40;;;29.70;61.40;;;;;;5009272;28;20791;-76
2022/06/11 11:33:36;;;;;;;1.23;1.13;;;30.10;66.40;;;;;;4992868;28;21217;-75
2022/06/11 11:36:17;;;;;;;6.87;1.63;;;29.80;66.60;;;;;;4993031;28;20518;-79
2022/06/11 11:38:43;;;;;;;1.93;1.43;;;29.60;64.30;;;;;;5008168;28;20399;-76
2022/06/11 11:41:24;;;;;;;2.87;1.40;;;29.50;66.80;;;;;;4991644;28;20421;-78
2022/06/11 11:43:51;;;;;;;3.73;1.30;;;29.40;71.60;;;;;;5007313;28;20308;-76
2022/06/11 11:46:25;;;;;;;1.77;1.00;;;29.20;68.30;;;;;;4992810;28;20794;-79
2022/06/11 11:48:57;;;;;;;3.23;1.33;;;29.20;69.90;;;;;;4996960;28;20417;-78
2022/06/11 11:51:32;;;;;;;3.63;1.10;;;29.20;68.30;;;;;;4995425;28;20500;-77
2022/06/11 11:54:13;;;;;;;2.20;1.53;;;29.20;69.90;;;;;;4995168;28;20964;-78
2022/06/11 11:56:53;;;;;;;3.03;1.40;;;29.10;68.40;;;;;;4993167;28;21006;-77
2022/06/11 11:59:25;;;;;;;5.67;1.37;;;29.10;68.20;;;;;;4993319;28;20487;-77
2022/06/11 12:01:54;;;;;;;3.30;1.10;;;29.10;66.10;;;;;;4991870;28;20424;-77
2022/06/11 12:04:50;;;;;;;3.77;1.37;;;29.10;67.70;;;;;;5008673;28;20476;-77
2022/06/11 12:07:21;;;;;;;2.87;1.40;;;29.00;69.30;;;;;;4992130;28;20461;-77
2022/06/11 12:09:54;;;;;;;1.60;1.20;;;28.90;63.20;;;;;;5007315;28;20429;-77
2022/06/11 12:12:29;;;;;;;5.83;1.30;;;28.40;65.40;;;;;;4992361;28;20442;-77
2022/06/11 12:15:02;;;;;;;2.53;1.60;;;28.00;66.90;;;;;;4990600;28;20437;-77
2022/06/11 12:17:43;;;;;;;6.23;1.30;;;27.90;69.50;;;;;;4992501;28;20433;-76
2022/06/11 12:20:47;;;;;;;1.93;1.37;;;28.20;73.10;;;;;;4991297;28;20417;-76
2022/06/11 12:23:31;;;;;;;3.87;1.40;;;28.30;67.90;;;;;;4991533;28;20576;-78
2022/06/11 12:26:03;;;;;;;2.57;1.50;;;28.60;69.30;;;;;;4991766;28;20433;-76
2022/06/11 12:28:50;;;;;;;2.70;1.50;;;28.70;69.70;;;;;;4993639;28;20438;-75
2022/06/11 12:31:17;;;;;;;3.80;1.30;;;28.80;68.30;;;;;;4989852;28;20479;-76
2022/06/11 12:33:45;;;;;;;2.90;1.40;;;28.70;66.90;;;;;;5005945;28;20507;-76
2022/06/11 12:36:43;;;;;;;1.67;1.30;;;28.80;65.60;;;;;;4990340;28;20443;-74
2022/06/11 12:39:17;;;;;;;2.80;1.20;;;28.80;65.70;;;;;;4990078;28;20426;-76
2022/06/11 12:41:56;;;;;;;2.37;1.73;;;28.90;68.40;;;;;;4990478;28;20519;-75
2022/06/11 12:44:24;;;;;;;1.30;1.10;;;28.90;65.60;;;;;;4990554;28;20829;-75
2022/06/11 12:47:09;;;;;;;1.30;1.20;;;28.80;65.10;;;;;;4990210;28;20420;-75
2022/06/11 12:49:48;;;;;;;3.63;1.10;;;28.70;64.70;;;;;;4989035;28;20461;-75
2022/06/11 12:52:28;;;;;;;2.30;1.30;;;28.70;62.40;;;;;;4990193;28;20523;-76
2022/06/11 12:55:04;;;;;;;2.60;1.03;;;28.80;69.40;;;;;;4990022;28;21043;-76
2022/06/11 12:57:41;;;;;;;4.93;1.03;;;28.90;66.60;;;;;;4990098;28;20425;-76
2022/06/11 13:00:35;;;;;;;2.43;1.40;;;28.90;68.10;;;;;;4989931;28;20453;-76
2022/06/11 13:03:00;;;;;;;1.70;1.33;;;28.80;67.30;;;;;;4988340;28;20900;-76
2022/06/11 13:05:44;;;;;;;3.57;1.60;;;28.80;65.70;;;;;;4989996;28;20431;-77
2022/06/11 13:08:13;;;;;;;3.73;1.30;;;28.80;67.80;;;;;;4988493;28;20188;-76
2022/06/11 13:11:01;;;;;;;2.40;1.60;;;28.80;66.30;;;;;;4989856;28;20902;-75
2022/06/11 13:13:46;;;;;;;3.40;1.50;;;28.80;63.20;;;;;;4989418;28;20453;-76
2022/06/11 13:16:25;;;;;;;2.37;1.50;;;28.80;66.80;;;;;;4989725;28;20584;-76
2022/06/11 13:18:57;;;;;;;2.80;1.40;;;28.80;65.90;;;;;;4989923;28;20417;-75